Scales Mound, Illinois
Current Conditions -  °F | °C
As of 3:35 AM on Saturday 25 Oct 2014 (Local Time) from KPVB Reporting Station
Broken Clouds Broken Clouds  
Wind Chill: 56°   Ceiling: 400
Heat Index: 56°   Visibility: 2mi
Dew Point: 55°   Wind: 0mph
Humidity: 97%   Direction: NA
Pressure: 29.92"   Gusts: NA
Location:  42.48°N, 90.25°W
Report Text: KPVB 250835Z AUTO 00000KT 2SM BKN004 13/13 A2992 RMK AO1 T01330128
Loading
Personal Weather Stations






























Interactive Weather Map
Tropical Storm Tracking
New forecast layout! Learn more

10-Day Weather Forecast

Advertisements
Track Severe Weather on mobile